Time,TemperatureF,DewpointF,PressureIn,WindDirection,WindDirectionDegrees,WindSpeedMPH,WindSpeedGustMPH,Humidity,HourlyPrecipIn,Conditions,Clouds,dailyrainin,SoftwareType,DateUTC
2013-04-03 00:00:00,50.8,48.0,30.13,SW,236,2.3,2.3,90,0.00,CLR,,0.00,WeatherDisplay:10.37,2013-04-03 07:00:00,
2013-04-03 00:05:00,50.7,48.2,30.13,SW,218,1.1,1.1,91,0.00,CLR,,0.00,WeatherDisplay:10.37,2013-04-03 07:05:00,
2013-04-03 00:10:00,50.5,48.0,30.13,South,184,2.3,2.3,91,0.00,CLR,,0.00,WeatherDisplay:10.37,2013-04-03 07:10:00,
2013-04-03 00:15:00,50.4,47.9,30.13,SW,225,2.0,2.0,91,0.00,CLR,,0.00,WeatherDisplay:10.37,2013-04-03 07:15:00,
2013-04-03 00:21:00,50.3,47.8,30.13,SSW,208,2.3,2.3,91,0.00,CLR,,0.00,WeatherDisplay:10.37,2013-04-03 07:21:00,
2013-04-03 00:26:00,50.1,47.6,30.13,South,173,3.5,3.5,91,0.00,CLR,,0.00,WeatherDisplay:10.37,2013-04-03 07:26:00,
2013-04-03 00:31:00,50.0,47.5,30.13,South,172,2.3,2.3,91,0.00,CLR,,0.00,WeatherDisplay:10.37,2013-04-03 07:31:00,
2013-04-03 00:36:00,49.8,47.3,30.13,SW,220,1.1,1.1,91,0.00,CLR,,0.00,WeatherDisplay:10.37,2013-04-03 07:36:00,
2013-04-03 00:41:00,49.6,47.1,30.13,South,190,1.1,0.0,91,0.00,CLR,,0.00,WeatherDisplay:10.37,2013-04-03 07:41:00,
2013-04-03 00:46:00,49.5,47.3,30.14,South,188,2.3,2.3,92,0.00,CLR,,0.00,WeatherDisplay:10.37,2013-04-03 07:46:00,
2013-04-03 00:51:00,49.4,47.2,30.14,South,172,3.5,3.5,92,0.00,CLR,,0.00,WeatherDisplay:10.37,2013-04-03 07:51:00,
2013-04-03 00:56:00,49.3,47.1,30.14,SSW,204,2.3,0.0,92,0.00,CLR,,0.00,WeatherDisplay:10.37,2013-04-03 07:56:00,
2013-04-03 01:02:00,49.2,47.0,30.14,SE,144,3.5,3.5,92,0.00,CLR,,0.00,WeatherDisplay:10.37,2013-04-03 08:02:00,
2013-04-03 01:07:00,49.1,46.9,30.14,SSW,204,2.3,2.3,92,0.00,CLR,,0.00,WeatherDisplay:10.37,2013-04-03 08:07:00,
2013-04-03 01:12:00,49.0,46.8,30.14,South,186,4.6,4.6,92,0.00,CLR,,0.00,WeatherDisplay:10.37,2013-04-03 08:12:00,
2013-04-03 01:17:00,48.9,46.7,30.14,South,172,2.3,2.3,92,0.00,CLR,,0.00,WeatherDisplay:10.37,2013-04-03 08:17:00,
2013-04-03 01:23:00,48.9,46.7,30.15,SW,232,2.3,2.3,92,0.00,CLR,,0.00,WeatherDisplay:10.37,2013-04-03 08:23:00,
2013-04-03 01:28:00,48.7,46.5,30.14,South,184,2.3,2.3,92,0.00,CLR,,0.00,WeatherDisplay:10.37,2013-04-03 08:28:00,
2013-04-03 01:33:00,48.6,46.4,30.15,SSW,204,2.0,2.0,92,0.00,CLR,,0.00,WeatherDisplay:10.37,2013-04-03 08:33:00,
2013-04-03 01:38:00,48.5,46.3,30.14,South,176,3.0,3.0,92,0.00,CLR,,0.00,WeatherDisplay:10.37,2013-04-03 08:38:00,
2013-04-03 01:43:00,48.4,46.2,30.15,South,173,2.3,2.3,92,0.00,CLR,,0.00,WeatherDisplay:10.37,2013-04-03 08:43:00,
2013-04-03 01:48:00,48.3,46.1,30.14,SSW,193,1.1,1.1,92,0.00,CLR,,0.00,WeatherDisplay:10.37,2013-04-03 08:48:00,
2013-04-03 01:53:00,48.2,46.3,30.14,SW,224,1.1,1.1,93,0.00,CLR,,0.00,WeatherDisplay:10.37,2013-04-03 08:53:00,
2013-04-03 01:58:00,48.2,46.3,30.13,SW,235,1.1,1.1,93,0.00,CLR,,0.00,WeatherDisplay:10.37,2013-04-03 08:58:00,
2013-04-03 02:03:00,48.0,46.1,30.13,WSW,243,1.1,1.1,93,0.00,CLR,,0.00,WeatherDisplay:10.37,2013-04-03 09:03:00,
2013-04-03 02:08:00,47.9,46.0,30.13,WSW,243,0.0,0.0,93,0.00,CLR,,0.00,WeatherDisplay:10.37,2013-04-03 09:08:00,
2013-04-03 02:14:00,47.8,45.9,30.13,WSW,243,0.0,0.0,93,0.00,CLR,,0.00,WeatherDisplay:10.37,2013-04-03 09:14:00,
2013-04-03 02:19:00,47.5,45.6,30.13,WSW,243,0.0,0.0,93,0.00,CLR,,0.00,WeatherDisplay:10.37,2013-04-03 09:19:00,
2013-04-03 02:24:00,47.2,45.0,30.13,ESE,110,1.1,1.1,92,0.00,CLR,,0.00,WeatherDisplay:10.37,2013-04-03 09:24:00,
2013-04-03 02:29:00,46.9,45.0,30.13,ESE,110,1.1,1.1,93,0.00,CLR,,0.00,WeatherDisplay:10.37,2013-04-03 09:29:00,
2013-04-03 02:35:00,46.8,44.9,30.12,ESE,110,0.0,0.0,93,0.00,CLR,,0.00,WeatherDisplay:10.37,2013-04-03 09:35:00,
2013-04-03 02:40:00,46.7,44.8,30.13,ESE,110,0.0,0.0,93,0.00,CLR,,0.00,WeatherDisplay:10.37,2013-04-03 09:40:00,
2013-04-03 02:45:00,46.4,44.5,30.12,ESE,110,0.0,0.0,93,0.00,CLR,,0.00,WeatherDisplay:10.37,2013-04-03 09:45:00,
2013-04-03 02:50:00,46.2,44.3,30.12,ESE,110,0.0,0.0,93,0.00,CLR,,0.00,WeatherDisplay:10.37,2013-04-03 09:50:00,
2013-04-03 02:55:00,46.3,44.4,30.12,ESE,111,0.0,0.0,93,0.00,CLR,,0.00,WeatherDisplay:10.37,2013-04-03 09:55:00,
2013-04-03 03:00:00,46.4,44.8,30.12,ESE,112,1.1,1.1,94,0.00,CLR,,0.00,WeatherDisplay:10.37,2013-04-03 10:00:00,
2013-04-03 03:05:00,46.4,44.8,30.12,ESE,113,1.1,1.1,94,0.00,CLR,,0.00,WeatherDisplay:10.37,2013-04-03 10:05:00,
2013-04-03 03:11:00,46.5,44.9,30.12,ESE,113,0.0,0.0,94,0.00,CLR,,0.00,WeatherDisplay:10.37,2013-04-03 10:11:00,
2013-04-03 03:16:00,46.5,44.9,30.12,ESE,121,1.1,0.0,94,0.00,CLR,,0.00,WeatherDisplay:10.37,2013-04-03 10:16:00,
2013-04-03 03:22:00,46.5,44.9,30.12,SW,214,1.1,1.1,94,0.00,CLR,,0.00,WeatherDisplay:10.37,2013-04-03 10:22:00,
2013-04-03 03:27:00,46.5,44.9,30.12,SW,214,0.0,0.0,94,0.00,CLR,,0.00,WeatherDisplay:10.37,2013-04-03 10:27:00,
2013-04-03 03:32:00,46.5,44.9,30.12,SW,214,0.0,0.0,94,0.00,CLR,,0.00,WeatherDisplay:10.37,2013-04-03 10:32:00,
2013-04-03 03:37:00,46.4,44.8,30.12,SW,236,2.3,2.3,94,0.00,CLR,,0.00,WeatherDisplay:10.37,2013-04-03 10:37:00,
2013-04-03 03:42:00,46.4,44.8,30.12,SSW,195,1.1,1.1,94,0.00,CLR,,0.00,WeatherDisplay:10.37,2013-04-03 10:42:00,
2013-04-03 03:47:00,46.4,44.8,30.13,SSE,162,2.3,2.3,94,0.00,CLR,,0.00,WeatherDisplay:10.37,2013-04-03 10:47:00,
2013-04-03 03:53:00,46.1,44.5,30.12,South,176,2.3,2.3,94,0.00,CLR,,0.00,WeatherDisplay:10.37,2013-04-03 10:53:00,
2013-04-03 03:58:00,46.2,44.6,30.13,South,186,1.1,1.1,94,0.00,CLR,,0.00,WeatherDisplay:10.37,2013-04-03 10:58:00,
2013-04-03 04:04:00,46.7,45.1,30.13,SSE,165,2.3,2.3,94,0.00,CLR,,0.00,WeatherDisplay:10.37,2013-04-03 11:04:00,
2013-04-03 04:09:00,47.1,45.5,30.13,South,177,3.5,3.5,94,0.00,CLR,,0.00,WeatherDisplay:10.37,2013-04-03 11:09:00,
2013-04-03 04:14:00,47.2,45.6,30.13,SE,142,2.0,2.0,94,0.00,CLR,,0.00,WeatherDisplay:10.37,2013-04-03 11:14:00,
2013-04-03 04:19:00,47.2,45.6,30.13,SSE,160,2.3,2.3,94,0.00,CLR,,0.00,WeatherDisplay:10.37,2013-04-03 11:19:00,
2013-04-03 04:24:00,47.3,45.7,30.13,SSE,153,2.3,2.3,94,0.00,CLR,,0.00,WeatherDisplay:10.37,2013-04-03 11:24:00,
2013-04-03 04:30:00,47.3,45.7,30.13,South,186,2.0,2.0,94,0.00,CLR,,0.00,WeatherDisplay:10.37,2013-04-03 11:30:00,
2013-04-03 04:35:00,47.4,45.8,30.13,South,170,2.3,2.3,94,0.00,CLR,,0.00,WeatherDisplay:10.37,2013-04-03 11:35:00,
2013-04-03 04:40:00,47.5,45.9,30.13,SSW,204,1.1,1.1,94,0.00,CLR,,0.00,WeatherDisplay:10.37,2013-04-03 11:40:00,
2013-04-03 04:45:00,47.5,45.9,30.13,South,188,2.3,2.3,94,0.00,CLR,,0.00,WeatherDisplay:10.37,2013-04-03 11:45:00,
2013-04-03 04:51:00,47.4,45.8,30.12,South,169,3.5,3.5,94,0.00,CLR,,0.00,WeatherDisplay:10.37,2013-04-03 11:51:00,
2013-04-03 04:56:00,47.4,45.8,30.12,WSW,239,2.3,2.3,94,0.00,CLR,,0.00,WeatherDisplay:10.37,2013-04-03 11:56:00,
2013-04-03 05:01:00,47.3,45.7,30.12,WSW,238,2.3,2.3,94,0.00,CLR,,0.00,WeatherDisplay:10.37,2013-04-03 12:01:00,
2013-04-03 05:06:00,47.3,45.7,30.12,WSW,239,1.1,1.1,94,0.00,CLR,,0.00,WeatherDisplay:10.37,2013-04-03 12:06:00,
2013-04-03 05:11:00,47.3,45.7,30.12,WSW,239,0.0,0.0,94,0.00,CLR,,0.00,WeatherDisplay:10.37,2013-04-03 12:11:00,
2013-04-03 05:16:00,47.3,45.7,30.12,WSW,239,1.1,0.0,94,0.00,CLR,,0.00,WeatherDisplay:10.37,2013-04-03 12:16:00,
2013-04-03 05:21:00,47.3,45.7,30.12,WSW,239,0.0,0.0,94,0.00,CLR,,0.00,WeatherDisplay:10.37,2013-04-03 12:21:00,
2013-04-03 05:27:00,47.2,45.6,30.12,NW,312,2.3,2.3,94,0.00,CLR,,0.00,WeatherDisplay:10.37,2013-04-03 12:27:00,
2013-04-03 05:32:00,47.0,45.4,30.11,NW,311,0.0,0.0,94,0.00,CLR,,0.00,WeatherDisplay:10.37,2013-04-03 12:32:00,
2013-04-03 05:37:00,46.9,45.3,30.12,NNW,333,1.1,0.0,94,0.00,CLR,,0.00,WeatherDisplay:10.37,2013-04-03 12:37:00,
2013-04-03 05:42:00,47.0,45.4,30.11,NNW,333,1.1,1.1,94,0.00,CLR,,0.00,WeatherDisplay:10.37,2013-04-03 12:42:00,
2013-04-03 05:47:00,47.0,45.4,30.11,NE,41,2.3,2.3,94,0.00,CLR,,0.00,WeatherDisplay:10.37,2013-04-03 12:47:00,
2013-04-03 05:53:00,47.1,45.5,30.11,East,81,2.3,2.3,94,0.00,CLR,,0.00,WeatherDisplay:10.37,2013-04-03 12:53:00,
2013-04-03 05:58:00,47.1,45.5,30.11,ENE,72,1.1,1.1,94,0.00,CLR,,0.00,WeatherDisplay:10.37,2013-04-03 12:58:00,
2013-04-03 06:03:00,47.1,45.5,30.11,ENE,60,1.1,1.1,94,0.00,CLR,,0.00,WeatherDisplay:10.37,2013-04-03 13:03:00,
2013-04-03 06:08:00,47.1,45.7,30.11,ENE,58,0.0,0.0,95,0.00,CLR,,0.00,WeatherDisplay:10.37,2013-04-03 13:08:00,
2013-04-03 06:13:00,47.2,45.8,30.11,ENE,58,0.0,0.0,95,0.00,CLR,,0.00,WeatherDisplay:10.37,2013-04-03 13:13:00,
2013-04-03 06:18:00,47.3,45.9,30.12,ENE,58,1.1,1.1,95,0.00,CLR,,0.00,WeatherDisplay:10.37,2013-04-03 13:18:00,
2013-04-03 06:24:00,47.4,46.0,30.12,ENE,58,0.0,0.0,95,0.00,CLR,,0.00,WeatherDisplay:10.37,2013-04-03 13:24:00,
2013-04-03 06:29:00,47.4,46.0,30.12,ENE,58,0.0,0.0,95,0.00,CLR,,0.00,WeatherDisplay:10.37,2013-04-03 13:29:00,
2013-04-03 06:35:00,47.5,46.1,30.12,ENE,58,0.0,0.0,95,0.00,CLR,,0.00,WeatherDisplay:10.37,2013-04-03 13:35:00,
2013-04-03 06:40:00,47.5,46.1,30.12,ENE,58,0.0,0.0,95,0.00,CLR,,0.00,WeatherDisplay:10.37,2013-04-03 13:40:00,
2013-04-03 06:45:00,47.5,46.1,30.13,ENE,69,0.0,0.1,95,0.00,CLR,,0.00,WeatherDisplay:10.37,2013-04-03 13:45:00,
2013-04-03 07:35:00,47.7,46.3,30.14,SW,236,0.0,0.0,95,0.00,CLR,,0.00,WeatherDisplay:10.37,2013-04-03 14:35:00,
2013-04-03 07:40:00,47.8,46.4,30.14,SW,236,0.0,0.0,95,0.00,CLR,,0.00,WeatherDisplay:10.37,2013-04-03 14:40:00,
2013-04-03 07:45:00,47.7,46.3,30.14,South,180,0.0,0.0,95,0.00,CLR,,0.00,WeatherDisplay:10.37,2013-04-03 14:45:00,
2013-04-03 07:50:00,47.8,46.4,30.14,South,179,0.0,0.0,95,0.00,CLR,,0.00,WeatherDisplay:10.37,2013-04-03 14:50:00,
2013-04-03 07:55:00,47.9,46.5,30.14,South,179,0.0,0.0,95,0.00,CLR,,0.00,WeatherDisplay:10.37,2013-04-03 14:55:00,
2013-04-03 08:00:00,47.9,46.5,30.14,South,179,0.0,0.0,95,0.00,CLR,,0.00,WeatherDisplay:10.37,2013-04-03 15:00:00,
2013-04-03 08:05:00,47.8,46.4,30.14,ESE,115,0.0,0.0,95,0.00,CLR,,0.00,WeatherDisplay:10.37,2013-04-03 15:05:00,
2013-04-03 08:10:00,47.8,46.4,30.14,North,358,0.0,0.0,95,0.00,CLR,,0.00,WeatherDisplay:10.37,2013-04-03 15:10:00,
2013-04-03 08:16:00,47.8,46.4,30.14,North,5,0.0,0.0,95,0.00,CLR,,0.00,WeatherDisplay:10.37,2013-04-03 15:16:00,
2013-04-03 08:22:00,47.9,46.5,30.15,NNE,19,0.0,0.0,95,0.00,CLR,,0.00,WeatherDisplay:10.37,2013-04-03 15:22:00,
2013-04-03 08:27:00,48.0,46.6,30.15,North,358,1.1,0.0,95,0.00,CLR,,0.00,WeatherDisplay:10.37,2013-04-03 15:27:00,
2013-04-03 08:32:00,48.1,46.7,30.15,NE,41,3.5,3.5,95,0.00,CLR,,0.00,WeatherDisplay:10.37,2013-04-03 15:32:00,
2013-04-03 08:37:00,48.1,46.7,30.15,NE,51,2.3,2.3,95,0.00,CLR,,0.00,WeatherDisplay:10.37,2013-04-03 15:37:00,
2013-04-03 08:42:00,48.4,47.0,30.14,NNE,28,2.3,2.3,95,0.00,CLR,,0.00,WeatherDisplay:10.37,2013-04-03 15:42:00,
2013-04-03 08:47:00,48.6,47.2,30.14,NW,314,3.5,3.5,95,0.00,CLR,,0.00,WeatherDisplay:10.37,2013-04-03 15:47:00,
2013-04-03 08:52:00,48.7,47.3,30.14,NE,41,2.0,2.0,95,0.00,CLR,,0.00,WeatherDisplay:10.37,2013-04-03 15:52:00,
2013-04-03 08:57:00,48.8,47.4,30.14,NNE,23,3.5,3.5,95,0.00,CLR,,0.00,WeatherDisplay:10.37,2013-04-03 15:57:00,
2013-04-03 09:02:00,48.9,47.5,30.14,North,349,3.5,3.5,95,0.00,CLR,,0.00,WeatherDisplay:10.37,2013-04-03 16:02:00,
2013-04-03 09:07:00,49.2,47.8,30.14,NNW,335,0.0,0.0,95,0.00,CLR,,0.00,WeatherDisplay:10.37,2013-04-03 16:07:00,
2013-04-03 09:12:00,49.4,48.0,30.14,ENE,57,2.3,2.3,95,0.00,CLR,,0.00,WeatherDisplay:10.37,2013-04-03 16:12:00,
2013-04-03 09:17:00,49.7,48.3,30.15,ENE,68,1.1,1.1,95,0.00,CLR,,0.00,WeatherDisplay:10.37,2013-04-03 16:17:00,
2013-04-03 09:22:00,49.6,48.2,30.15,ENE,65,3.5,3.5,95,0.00,CLR,,0.00,WeatherDisplay:10.37,2013-04-03 16:22:00,
2013-04-03 09:28:00,50.0,48.6,30.15,SE,134,1.1,1.1,95,0.00,CLR,,0.00,WeatherDisplay:10.37,2013-04-03 16:28:00,
2013-04-03 09:33:00,50.0,48.6,30.15,SE,124,2.3,2.3,95,0.00,CLR,,0.00,WeatherDisplay:10.37,2013-04-03 16:33:00,
2013-04-03 09:38:00,50.0,48.6,30.15,SSE,150,0.0,0.0,95,0.00,CLR,,0.00,WeatherDisplay:10.37,2013-04-03 16:38:00,
2013-04-03 09:43:00,50.3,48.9,30.14,South,170,1.1,1.1,95,0.00,CLR,,0.00,WeatherDisplay:10.37,2013-04-03 16:43:00,
2013-04-03 09:49:00,50.3,48.9,30.15,SSW,212,2.3,2.3,95,0.00,CLR,,0.00,WeatherDisplay:10.37,2013-04-03 16:49:00,
2013-04-03 09:54:00,50.5,49.1,30.15,South,183,0.0,0.0,95,0.00,CLR,,0.00,WeatherDisplay:10.37,2013-04-03 16:54:00,
2013-04-03 09:59:00,50.7,49.0,30.15,WSW,245,3.5,3.5,94,0.00,CLR,,0.00,WeatherDisplay:10.37,2013-04-03 16:59:00,
2013-04-03 10:04:00,50.9,49.2,30.14,South,183,2.3,2.3,94,0.00,CLR,,0.00,WeatherDisplay:10.37,2013-04-03 17:04:00,
2013-04-03 10:09:00,51.3,49.6,30.14,SE,145,2.3,2.3,94,0.00,CLR,,0.00,WeatherDisplay:10.37,2013-04-03 17:09:00,
2013-04-03 10:14:00,51.9,50.2,30.14,WSW,252,1.1,1.1,94,0.00,CLR,,0.00,WeatherDisplay:10.37,2013-04-03 17:14:00,
2013-04-03 10:20:00,52.5,50.5,30.14,SSE,163,3.5,3.5,93,0.00,CLR,,0.00,WeatherDisplay:10.37,2013-04-03 17:20:00,
2013-04-03 10:25:00,52.6,50.3,30.14,ESE,112,2.3,2.3,92,0.00,CLR,,0.00,WeatherDisplay:10.37,2013-04-03 17:25:00,
2013-04-03 10:30:00,52.9,50.3,30.14,NNE,27,3.5,3.5,91,0.00,CLR,,0.00,WeatherDisplay:10.37,2013-04-03 17:30:00,
2013-04-03 10:35:00,53.1,50.8,30.14,SW,235,2.3,2.3,92,0.00,CLR,,0.00,WeatherDisplay:10.37,2013-04-03 17:35:00,
2013-04-03 10:40:00,53.7,51.1,30.14,South,191,2.3,2.3,91,0.00,CLR,,0.00,WeatherDisplay:10.37,2013-04-03 17:40:00,
2013-04-03 10:45:00,54.1,50.9,30.13,SSW,203,1.1,1.1,89,0.00,CLR,,0.00,WeatherDisplay:10.37,2013-04-03 17:45:00,
2013-04-03 10:50:00,54.7,51.8,30.13,South,184,2.0,2.0,90,0.00,CLR,,0.00,WeatherDisplay:10.37,2013-04-03 17:50:00,
2013-04-03 10:55:00,55.2,51.7,30.13,NE,41,2.3,2.3,88,0.00,CLR,,0.00,WeatherDisplay:10.37,2013-04-03 17:55:00,
2013-04-03 11:00:00,55.3,52.1,30.13,North,359,4.6,4.6,89,0.00,CLR,,0.00,WeatherDisplay:10.37,2013-04-03 18:00:00,
2013-04-03 11:05:00,55.0,51.5,30.13,NE,41,2.3,2.3,88,0.00,CLR,,0.00,WeatherDisplay:10.37,2013-04-03 18:05:00,
2013-04-03 11:10:00,55.3,51.8,30.13,SW,226,2.3,2.3,88,0.00,CLR,,0.00,WeatherDisplay:10.37,2013-04-03 18:10:00,
2013-04-03 11:15:00,56.4,53.2,30.12,East,92,1.1,0.0,89,0.00,CLR,,0.00,WeatherDisplay:10.37,2013-04-03 18:15:00,
2013-04-03 11:20:00,57.4,53.2,30.12,SSE,158,1.1,0.0,86,0.00,CLR,,0.00,WeatherDisplay:10.37,2013-04-03 18:20:00,
2013-04-03 11:26:00,58.8,53.6,30.12,South,172,3.5,3.5,83,0.00,CLR,,0.00,WeatherDisplay:10.37,2013-04-03 18:26:00,
2013-04-03 11:31:00,59.9,54.1,30.12,SSE,163,3.5,3.5,81,0.00,CLR,,0.00,WeatherDisplay:10.37,2013-04-03 18:31:00,
2013-04-03 11:37:00,60.9,54.0,30.12,SSW,195,3.5,3.5,78,0.00,CLR,,0.00,WeatherDisplay:10.37,2013-04-03 18:37:00,
2013-04-03 11:42:00,61.9,54.6,30.12,SSE,149,3.0,3.0,77,0.00,CLR,,0.00,WeatherDisplay:10.37,2013-04-03 18:42:00,
2013-04-03 11:47:00,62.3,54.6,30.12,SSE,147,3.0,3.0,76,0.00,CLR,,0.00,WeatherDisplay:10.37,2013-04-03 18:47:00,
2013-04-03 11:52:00,62.7,55.0,30.12,SW,224,2.3,2.3,76,0.00,CLR,,0.00,WeatherDisplay:10.37,2013-04-03 18:52:00,
2013-04-03 11:57:00,63.7,55.3,30.11,South,173,4.0,4.0,74,0.00,CLR,,0.00,WeatherDisplay:10.37,2013-04-03 18:57:00,
2013-04-03 12:02:00,64.6,55.4,30.11,ESE,119,2.3,2.3,72,0.00,CLR,,0.00,WeatherDisplay:10.37,2013-04-03 19:02:00,
2013-04-03 12:07:00,65.1,56.2,30.11,South,172,3.5,3.5,73,0.00,CLR,,0.00,WeatherDisplay:10.37,2013-04-03 19:07:00,
2013-04-03 12:12:00,65.6,56.3,30.10,SSE,167,7.0,7.0,72,0.00,CLR,,0.00,WeatherDisplay:10.37,2013-04-03 19:12:00,
2013-04-03 12:17:00,65.7,56.4,30.10,SE,146,3.0,3.0,72,0.00,CLR,,0.00,WeatherDisplay:10.37,2013-04-03 19:17:00,
2013-04-03 12:22:00,66.2,56.5,30.09,SSE,162,3.0,3.0,71,0.00,CLR,,0.00,WeatherDisplay:10.37,2013-04-03 19:22:00,
2013-04-03 12:27:00,66.0,55.1,30.09,SSE,156,6.9,6.9,68,0.00,CLR,,0.00,WeatherDisplay:10.37,2013-04-03 19:27:00,
2013-04-03 12:32:00,66.3,55.4,30.09,SSE,163,4.6,4.6,68,0.00,CLR,,0.00,WeatherDisplay:10.37,2013-04-03 19:32:00,
2013-04-03 12:38:00,66.6,55.3,30.09,SW,229,4.6,4.6,67,0.00,CLR,,0.00,WeatherDisplay:10.37,2013-04-03 19:38:00,
2013-04-03 12:43:00,67.9,56.5,30.09,SE,138,1.1,1.1,67,0.00,CLR,,0.00,WeatherDisplay:10.37,2013-04-03 19:43:00,
2013-04-03 12:48:00,68.9,55.8,30.08,SSE,166,4.6,4.6,63,0.00,CLR,,0.00,WeatherDisplay:10.37,2013-04-03 19:48:00,
2013-04-03 12:53:00,68.6,55.5,30.08,SE,133,3.5,3.5,63,0.00,CLR,,0.00,WeatherDisplay:10.37,2013-04-03 19:53:00,
2013-04-03 12:58:00,69.3,56.6,30.08,SSE,166,4.0,4.0,64,0.00,CLR,,0.00,WeatherDisplay:10.37,2013-04-03 19:58:00,
2013-04-03 13:03:00,70.0,55.9,30.07,WSW,249,4.6,4.6,61,0.00,CLR,,0.00,WeatherDisplay:10.37,2013-04-03 20:03:00,
2013-04-03 13:08:00,70.6,55.1,30.07,SSE,147,6.9,6.9,58,0.00,CLR,,0.00,WeatherDisplay:10.37,2013-04-03 20:08:00,
2013-04-03 13:13:00,70.4,56.3,30.07,SE,128,3.5,3.5,61,0.00,CLR,,0.00,WeatherDisplay:10.37,2013-04-03 20:13:00,
2013-04-03 13:18:00,70.7,57.0,30.07,South,169,7.0,7.0,62,0.00,CLR,,0.00,WeatherDisplay:10.37,2013-04-03 20:18:00,
2013-04-03 13:23:00,70.4,56.8,30.06,South,182,5.0,5.0,62,0.00,CLR,,0.00,WeatherDisplay:10.37,2013-04-03 20:23:00,
2013-04-03 13:28:00,69.9,57.2,30.06,SE,141,3.5,3.5,64,0.00,CLR,,0.00,WeatherDisplay:10.37,2013-04-03 20:28:00,
2013-04-03 13:33:00,69.8,57.1,30.06,SSE,165,3.5,3.5,64,0.00,CLR,,0.00,WeatherDisplay:10.37,2013-04-03 20:33:00,
2013-04-03 13:38:00,70.1,57.4,30.05,SSE,151,5.8,5.8,64,0.00,CLR,,0.00,WeatherDisplay:10.37,2013-04-03 20:38:00,
2013-04-03 13:43:00,70.0,56.8,30.05,ESE,118,2.3,2.3,63,0.00,CLR,,0.00,WeatherDisplay:10.37,2013-04-03 20:43:00,
2013-04-03 13:48:00,70.4,57.6,30.06,SSE,159,3.5,3.5,64,0.00,CLR,,0.00,WeatherDisplay:10.37,2013-04-03 20:48:00,
2013-04-03 13:53:00,71.0,58.2,30.05,SE,142,3.5,3.5,64,0.00,CLR,,0.00,WeatherDisplay:10.37,2013-04-03 20:53:00,
2013-04-03 13:58:00,70.7,57.0,30.05,SE,129,2.3,2.3,62,0.00,CLR,,0.00,WeatherDisplay:10.37,2013-04-03 20:58:00,
2013-04-03 14:03:00,70.8,57.1,30.05,SSE,150,3.5,3.5,62,0.00,CLR,,0.00,WeatherDisplay:10.37,2013-04-03 21:03:00,
2013-04-03 14:08:00,71.6,57.0,30.05,SSE,150,1.1,1.1,60,0.00,CLR,,0.00,WeatherDisplay:10.37,2013-04-03 21:08:00,
2013-04-03 14:13:00,72.8,58.1,30.04,South,172,3.5,3.5,60,0.00,CLR,,0.00,WeatherDisplay:10.37,2013-04-03 21:13:00,
2013-04-03 14:18:00,73.5,56.8,30.04,SSE,162,4.6,4.6,56,0.00,CLR,,0.00,WeatherDisplay:10.37,2013-04-03 21:18:00,
2013-04-03 14:23:00,74.5,57.3,30.04,SSE,163,5.8,5.8,55,0.00,CLR,,0.00,WeatherDisplay:10.37,2013-04-03 21:23:00,
2013-04-03 14:28:00,75.1,57.3,30.03,SSW,211,4.6,4.6,54,0.00,CLR,,0.00,WeatherDisplay:10.37,2013-04-03 21:28:00,
2013-04-03 14:33:00,75.2,57.4,30.03,South,177,5.0,5.0,54,0.00,CLR,,0.00,WeatherDisplay:10.37,2013-04-03 21:33:00,
2013-04-03 14:38:00,75.7,57.4,30.03,South,187,3.5,3.5,53,0.00,CLR,,0.00,WeatherDisplay:10.37,2013-04-03 21:38:00,
2013-04-03 14:43:00,75.2,57.9,30.02,SE,139,3.5,3.5,55,0.00,CLR,,0.00,WeatherDisplay:10.37,2013-04-03 21:43:00,
2013-04-03 14:48:00,75.7,57.4,30.02,South,179,4.6,4.6,53,0.00,CLR,,0.00,WeatherDisplay:10.37,2013-04-03 21:48:00,
2013-04-03 14:53:00,76.1,57.2,30.02,South,176,5.8,5.8,52,0.00,CLR,,0.00,WeatherDisplay:10.37,2013-04-03 21:53:00,
2013-04-03 14:58:00,76.4,57.5,30.02,SSW,207,5.0,5.0,52,0.00,CLR,,0.00,WeatherDisplay:10.37,2013-04-03 21:58:00,
2013-04-03 15:03:00,76.8,56.8,30.02,SSE,156,6.0,6.0,50,0.00,CLR,,0.00,WeatherDisplay:10.37,2013-04-03 22:03:00,
2013-04-03 15:08:00,76.6,57.1,30.02,SSE,150,3.5,3.5,51,0.00,CLR,,0.00,WeatherDisplay:10.37,2013-04-03 22:08:00,
2013-04-03 15:13:00,77.5,56.8,30.01,SSW,211,6.9,6.9,49,0.00,CLR,,0.00,WeatherDisplay:10.37,2013-04-03 22:13:00,
2013-04-03 15:18:00,78.0,56.7,30.01,SSE,156,3.5,3.5,48,0.00,CLR,,0.00,WeatherDisplay:10.37,2013-04-03 22:18:00,
2013-04-03 15:23:00,78.0,55.5,30.01,SSW,200,4.6,4.6,46,0.00,CLR,,0.00,WeatherDisplay:10.37,2013-04-03 22:23:00,
2013-04-03 15:28:00,78.3,55.2,30.01,South,178,6.9,6.9,45,0.00,CLR,,0.00,WeatherDisplay:10.37,2013-04-03 22:28:00,
2013-04-03 15:33:00,78.9,55.1,30.01,SSW,201,7.0,7.0,44,0.00,CLR,,0.00,WeatherDisplay:10.37,2013-04-03 22:33:00,
2013-04-03 15:38:00,78.3,54.0,30.01,SW,221,11.5,11.5,43,0.00,CLR,,0.00,WeatherDisplay:10.37,2013-04-03 22:38:00,
2013-04-03 15:43:00,78.2,54.5,30.00,South,174,8.1,8.1,44,0.00,CLR,,0.00,WeatherDisplay:10.37,2013-04-03 22:43:00,
2013-04-03 15:48:00,78.3,54.0,30.00,SSW,212,8.1,8.1,43,0.00,CLR,,0.00,WeatherDisplay:10.37,2013-04-03 22:48:00,
2013-04-03 15:53:00,78.1,53.8,30.00,SW,226,6.9,6.9,43,0.00,CLR,,0.00,WeatherDisplay:10.37,2013-04-03 22:53:00,
2013-04-03 15:58:00,78.6,53.6,30.00,SW,217,6.0,6.0,42,0.00,CLR,,0.00,WeatherDisplay:10.37,2013-04-03 22:58:00,
2013-04-03 16:03:00,79.2,54.1,30.00,South,190,3.5,3.5,42,0.00,CLR,,0.00,WeatherDisplay:10.37,2013-04-03 23:03:00,
2013-04-03 16:08:00,79.1,54.0,30.00,SW,234,6.9,6.9,42,0.00,CLR,,0.00,WeatherDisplay:10.37,2013-04-03 23:08:00,
2013-04-03 16:13:00,79.1,54.7,30.00,SSE,152,3.5,3.5,43,0.00,CLR,,0.00,WeatherDisplay:10.37,2013-04-03 23:13:00,
2013-04-03 16:18:00,78.9,53.9,29.99,NW,305,5.8,5.8,42,0.00,CLR,,0.00,WeatherDisplay:10.37,2013-04-03 23:18:00,
2013-04-03 16:23:00,78.5,53.5,29.99,ESE,122,6.9,6.9,42,0.00,CLR,,0.00,WeatherDisplay:10.37,2013-04-03 23:23:00,
2013-04-03 16:28:00,77.8,52.9,29.99,South,187,3.5,3.5,42,0.00,CLR,,0.00,WeatherDisplay:10.37,2013-04-03 23:28:00,
2013-04-03 16:33:00,78.0,53.7,29.99,South,179,3.5,3.5,43,0.00,CLR,,0.00,WeatherDisplay:10.37,2013-04-03 23:33:00,
2013-04-03 16:38:00,77.8,54.1,29.98,SW,226,5.0,5.0,44,0.00,CLR,,0.00,WeatherDisplay:10.37,2013-04-03 23:38:00,
2013-04-03 16:43:00,77.7,53.4,29.98,SW,232,4.6,4.6,43,0.00,CLR,,0.00,WeatherDisplay:10.37,2013-04-03 23:43:00,
2013-04-03 16:48:00,77.7,52.8,29.98,SW,229,3.5,3.5,42,0.00,CLR,,0.00,WeatherDisplay:10.37,2013-04-03 23:48:00,
2013-04-03 16:53:00,77.5,51.3,29.98,South,186,6.9,6.9,40,0.00,CLR,,0.00,WeatherDisplay:10.37,2013-04-03 23:53:00,
2013-04-03 16:58:00,77.7,50.8,29.97,SSW,200,3.5,3.5,39,0.00,CLR,,0.00,WeatherDisplay:10.37,2013-04-03 23:58:00,
2013-04-03 17:03:00,77.6,51.4,29.97,South,181,6.0,6.0,40,0.00,CLR,,0.00,WeatherDisplay:10.37,2013-04-04 00:03:00,
2013-04-03 17:08:00,77.5,50.6,29.97,SSW,207,4.6,4.6,39,0.00,CLR,,0.00,WeatherDisplay:10.37,2013-04-04 00:08:00,
2013-04-03 17:13:00,77.1,52.2,29.97,SW,229,6.0,6.0,42,0.00,CLR,,0.00,WeatherDisplay:10.37,2013-04-04 00:13:00,
2013-04-03 17:18:00,76.8,52.0,29.97,SSE,148,8.1,8.1,42,0.00,CLR,,0.00,WeatherDisplay:10.37,2013-04-04 00:18:00,
2013-04-03 17:23:00,76.6,51.8,29.98,NW,321,8.1,8.1,42,0.00,CLR,,0.00,WeatherDisplay:10.37,2013-04-04 00:23:00,
2013-04-03 17:28:00,76.4,51.0,29.97,WSW,243,8.1,8.1,41,0.00,CLR,,0.00,WeatherDisplay:10.37,2013-04-04 00:28:00,
2013-04-03 17:33:00,76.0,50.6,29.97,WSW,239,4.6,4.6,41,0.00,CLR,,0.00,WeatherDisplay:10.37,2013-04-04 00:33:00,
2013-04-03 17:38:00,76.0,51.2,29.97,South,191,4.0,4.0,42,0.00,CLR,,0.00,WeatherDisplay:10.37,2013-04-04 00:38:00,
2013-04-03 17:43:00,76.2,50.8,29.97,SSE,156,9.2,9.2,41,0.00,CLR,,0.00,WeatherDisplay:10.37,2013-04-04 00:43:00,
2013-04-03 17:48:00,76.1,50.0,29.97,SW,218,8.1,8.1,40,0.00,CLR,,0.00,WeatherDisplay:10.37,2013-04-04 00:48:00,
2013-04-03 17:53:00,76.2,49.4,29.97,South,191,4.6,4.6,39,0.00,CLR,,0.00,WeatherDisplay:10.37,2013-04-04 00:53:00,
2013-04-03 17:58:00,76.2,48.7,29.97,SW,232,4.6,4.6,38,0.00,CLR,,0.00,WeatherDisplay:10.37,2013-04-04 00:58:00,
2013-04-03 18:03:00,75.9,49.8,29.97,SSW,201,4.0,4.0,40,0.00,CLR,,0.00,WeatherDisplay:10.37,2013-04-04 01:03:00,
2013-04-03 18:08:00,75.5,50.8,29.97,SSE,166,3.5,3.5,42,0.00,CLR,,0.00,WeatherDisplay:10.37,2013-04-04 01:08:00,
2013-04-03 18:13:00,75.0,51.6,29.97,SW,214,4.6,4.6,44,0.00,CLR,,0.00,WeatherDisplay:10.37,2013-04-04 01:13:00,
2013-04-03 18:18:00,74.8,52.0,29.97,SW,218,3.5,3.5,45,0.00,CLR,,0.00,WeatherDisplay:10.37,2013-04-04 01:18:00,
2013-04-03 18:23:00,74.4,52.3,29.97,WSW,246,3.5,3.5,46,0.00,CLR,,0.00,WeatherDisplay:10.37,2013-04-04 01:23:00,
2013-04-03 18:28:00,74.2,52.1,29.97,WSW,246,5.0,5.0,46,0.00,CLR,,0.00,WeatherDisplay:10.37,2013-04-04 01:28:00,
2013-04-03 18:33:00,73.9,52.4,29.97,WSW,245,3.5,3.5,47,0.00,CLR,,0.00,WeatherDisplay:10.37,2013-04-04 01:33:00,
2013-04-03 18:38:00,73.7,52.8,29.97,SW,229,2.3,2.3,48,0.00,CLR,,0.00,WeatherDisplay:10.37,2013-04-04 01:38:00,
2013-04-03 18:43:00,73.5,53.2,29.97,SSW,210,4.6,4.6,49,0.00,CLR,,0.00,WeatherDisplay:10.37,2013-04-04 01:43:00,
2013-04-03 18:48:00,73.3,54.1,29.97,WSW,248,6.0,6.0,51,0.00,CLR,,0.00,WeatherDisplay:10.37,2013-04-04 01:48:00,
2013-04-03 18:53:00,72.8,54.7,29.97,SW,221,4.6,4.6,53,0.00,CLR,,0.00,WeatherDisplay:10.37,2013-04-04 01:53:00,
2013-04-03 18:58:00,72.4,54.8,29.97,WSW,246,3.5,3.5,54,0.00,CLR,,0.00,WeatherDisplay:10.37,2013-04-04 01:58:00,
2013-04-03 19:03:00,72.0,55.4,29.97,East,92,1.1,1.1,56,0.00,CLR,,0.00,WeatherDisplay:10.37,2013-04-04 02:03:00,
2013-04-03 19:08:00,70.8,55.8,29.97,ESE,117,4.0,4.0,59,0.00,CLR,,0.00,WeatherDisplay:10.37,2013-04-04 02:08:00,
2013-04-03 19:13:00,68.3,55.6,29.97,ESE,122,5.8,5.8,64,0.00,CLR,,0.00,WeatherDisplay:10.37,2013-04-04 02:13:00,
2013-04-03 19:18:00,67.0,55.7,29.97,ESE,106,6.9,6.9,67,0.00,CLR,,0.00,WeatherDisplay:10.37,2013-04-04 02:18:00,
2013-04-03 19:23:00,65.9,55.4,29.98,SE,143,6.0,6.0,69,0.00,CLR,,0.00,WeatherDisplay:10.37,2013-04-04 02:23:00,
2013-04-03 19:28:00,65.3,55.3,29.97,SSE,165,11.5,11.5,70,0.00,CLR,,0.00,WeatherDisplay:10.37,2013-04-04 02:28:00,
2013-04-03 19:33:00,64.8,55.2,29.97,SSE,150,10.4,10.4,71,0.00,CLR,,0.00,WeatherDisplay:10.37,2013-04-04 02:33:00,
2013-04-03 19:38:00,64.3,55.1,29.97,South,190,9.2,9.2,72,0.00,CLR,,0.00,WeatherDisplay:10.37,2013-04-04 02:38:00,
2013-04-03 19:43:00,63.8,55.0,29.98,SE,139,10.4,10.4,73,0.00,CLR,,0.00,WeatherDisplay:10.37,2013-04-04 02:43:00,
2013-04-03 19:48:00,63.4,55.0,29.98,SSE,157,6.9,6.9,74,0.00,CLR,,0.00,WeatherDisplay:10.37,2013-04-04 02:48:00,
2013-04-03 19:53:00,63.0,54.9,29.98,SE,131,10.4,10.4,75,0.00,CLR,,0.00,WeatherDisplay:10.37,2013-04-04 02:53:00,
2013-04-03 19:58:00,62.7,55.0,29.98,SSE,164,9.2,9.2,76,0.00,CLR,,0.00,WeatherDisplay:10.37,2013-04-04 02:58:00,
2013-04-03 20:03:00,62.3,55.0,29.98,SE,146,6.9,6.9,77,0.00,CLR,,0.00,WeatherDisplay:10.37,2013-04-04 03:03:00,
2013-04-03 20:08:00,61.9,55.0,29.98,SSE,150,4.6,4.6,78,0.00,CLR,,0.00,WeatherDisplay:10.37,2013-04-04 03:08:00,
2013-04-03 20:14:00,61.5,54.9,29.99,SSE,165,8.0,8.0,79,0.00,CLR,,0.00,WeatherDisplay:10.37,2013-04-04 03:14:00,
2013-04-03 20:19:00,61.1,54.9,29.99,SE,144,6.9,6.9,80,0.00,CLR,,0.00,WeatherDisplay:10.37,2013-04-04 03:19:00,
2013-04-03 20:24:00,60.4,54.5,29.99,East,100,4.6,4.6,81,0.00,CLR,,0.00,WeatherDisplay:10.37,2013-04-04 03:24:00,
2013-04-03 20:29:00,59.7,54.2,29.99,SSE,154,10.0,10.0,82,0.00,CLR,,0.00,WeatherDisplay:10.37,2013-04-04 03:29:00,
2013-04-03 20:34:00,59.1,53.9,29.99,SE,131,5.8,5.8,83,0.00,CLR,,0.00,WeatherDisplay:10.37,2013-04-04 03:34:00,
2013-04-03 20:39:00,58.8,53.6,29.99,SW,215,5.8,5.8,83,0.00,CLR,,0.00,WeatherDisplay:10.37,2013-04-04 03:39:00,
2013-04-03 20:44:00,58.6,53.8,29.99,SSE,165,5.0,5.0,84,0.00,CLR,,0.00,WeatherDisplay:10.37,2013-04-04 03:44:00,
2013-04-03 20:50:00,58.4,53.6,29.99,SSW,205,11.5,11.5,84,0.00,CLR,,0.00,WeatherDisplay:10.37,2013-04-04 03:50:00,
2013-04-03 20:55:00,58.2,53.4,30.00,South,176,10.4,10.4,84,0.00,CLR,,0.00,WeatherDisplay:10.37,2013-04-04 03:55:00,
2013-04-03 21:00:00,57.9,53.1,30.00,SSE,150,8.1,8.1,84,0.00,CLR,,0.00,WeatherDisplay:10.37,2013-04-04 04:00:00,
2013-04-03 21:01:00,57.9,53.1,30.00,SSE,165,5.8,5.8,84,0.00,CLR,,0.00,WeatherDisplay:10.37,2013-04-04 04:01:00,
2013-04-03 21:02:00,57.8,53.0,30.00,South,174,6.9,6.9,84,0.00,CLR,,0.00,WeatherDisplay:10.37,2013-04-04 04:02:00,
2013-04-03 21:07:00,57.6,53.1,30.00,SSW,212,6.0,6.0,85,0.00,CLR,,0.00,WeatherDisplay:10.37,2013-04-04 04:07:00,
2013-04-03 21:12:00,57.5,53.0,30.00,South,172,5.8,5.8,85,0.00,CLR,,0.00,WeatherDisplay:10.37,2013-04-04 04:12:00,
2013-04-03 21:17:00,57.4,52.9,30.00,SSE,166,5.0,5.0,85,0.00,CLR,,0.00,WeatherDisplay:10.37,2013-04-04 04:17:00,
2013-04-03 21:23:00,57.2,53.0,30.01,South,170,5.8,5.8,86,0.00,CLR,,0.00,WeatherDisplay:10.37,2013-04-04 04:23:00,
2013-04-03 21:28:00,57.2,53.0,30.01,SSE,148,5.8,5.8,86,0.00,CLR,,0.00,WeatherDisplay:10.37,2013-04-04 04:28:00,
2013-04-03 21:33:00,57.1,53.0,30.01,South,176,3.5,3.5,86,0.00,CLR,,0.00,WeatherDisplay:10.37,2013-04-04 04:33:00,
2013-04-03 21:38:00,57.0,52.9,30.01,SSE,155,2.3,2.3,86,0.00,CLR,,0.00,WeatherDisplay:10.37,2013-04-04 04:38:00,
2013-04-03 21:43:00,56.9,52.8,30.01,SSW,197,3.5,3.5,86,0.00,CLR,,0.00,WeatherDisplay:10.37,2013-04-04 04:43:00,
2013-04-03 21:48:00,56.8,53.0,30.01,SSE,154,6.9,6.9,87,0.00,CLR,,0.00,WeatherDisplay:10.37,2013-04-04 04:48:00,
2013-04-03 21:53:00,56.7,52.9,30.01,SSE,155,6.9,6.9,87,0.00,CLR,,0.00,WeatherDisplay:10.37,2013-04-04 04:53:00,
2013-04-03 21:58:00,56.5,52.4,30.02,SSE,165,9.2,9.2,86,0.00,CLR,,0.00,WeatherDisplay:10.37,2013-04-04 04:58:00,
2013-04-03 22:03:00,56.4,52.3,30.02,SSE,153,5.8,5.8,86,0.00,CLR,,0.00,WeatherDisplay:10.37,2013-04-04 05:03:00,
2013-04-03 22:08:00,56.3,52.2,30.02,South,169,4.6,4.6,86,0.00,CLR,,0.00,WeatherDisplay:10.37,2013-04-04 05:08:00,
2013-04-03 22:13:00,56.1,52.3,30.02,South,169,3.5,3.5,87,0.00,CLR,,0.00,WeatherDisplay:10.37,2013-04-04 05:13:00,
2013-04-03 22:18:00,55.9,52.1,30.02,SSE,164,5.8,5.8,87,0.00,CLR,,0.00,WeatherDisplay:10.37,2013-04-04 05:18:00,
2013-04-03 22:23:00,55.7,51.9,30.01,South,184,4.6,4.6,87,0.00,CLR,,0.00,WeatherDisplay:10.37,2013-04-04 05:23:00,
2013-04-03 22:28:00,55.6,51.8,30.01,SSE,159,4.0,4.0,87,0.00,CLR,,0.00,WeatherDisplay:10.37,2013-04-04 05:28:00,
2013-04-03 22:33:00,55.5,51.7,30.01,SSE,148,4.6,4.6,87,0.00,CLR,,0.00,WeatherDisplay:10.37,2013-04-04 05:33:00,
2013-04-03 22:38:00,55.4,51.6,30.01,SSE,154,3.5,3.5,87,0.00,CLR,,0.00,WeatherDisplay:10.37,2013-04-04 05:38:00,
2013-04-03 22:43:00,55.4,51.6,30.01,South,169,3.5,3.5,87,0.00,CLR,,0.00,WeatherDisplay:10.37,2013-04-04 05:43:00,
2013-04-03 22:48:00,55.4,51.6,30.01,South,185,3.5,3.5,87,0.00,CLR,,0.00,WeatherDisplay:10.37,2013-04-04 05:48:00,
2013-04-03 22:53:00,55.4,51.6,30.02,SSE,157,2.3,2.3,87,0.00,CLR,,0.00,WeatherDisplay:10.37,2013-04-04 05:53:00,
2013-04-03 22:58:00,55.3,51.5,30.02,SSE,162,3.5,3.5,87,0.00,CLR,,0.00,WeatherDisplay:10.37,2013-04-04 05:58:00,
2013-04-03 23:03:00,55.1,51.3,30.01,SSE,150,1.1,1.1,87,0.00,CLR,,0.00,WeatherDisplay:10.37,2013-04-04 06:03:00,
2013-04-03 23:08:00,55.1,51.3,30.01,SSE,159,1.1,1.1,87,0.00,CLR,,0.00,WeatherDisplay:10.37,2013-04-04 06:08:00,
2013-04-03 23:13:00,55.0,51.5,30.01,SSE,156,2.3,2.3,88,0.00,CLR,,0.00,WeatherDisplay:10.37,2013-04-04 06:13:00,
2013-04-03 23:18:00,54.9,51.4,30.01,SSE,163,3.5,3.5,88,0.00,CLR,,0.00,WeatherDisplay:10.37,2013-04-04 06:18:00,
2013-04-03 23:23:00,54.9,51.4,30.01,South,191,2.3,2.3,88,0.00,CLR,,0.00,WeatherDisplay:10.37,2013-04-04 06:23:00,
2013-04-03 23:28:00,54.9,51.4,30.01,SW,225,2.3,2.3,88,0.00,CLR,,0.00,WeatherDisplay:10.37,2013-04-04 06:28:00,
2013-04-03 23:33:00,54.9,51.4,30.01,SSE,160,2.0,2.0,88,0.00,CLR,,0.00,WeatherDisplay:10.37,2013-04-04 06:33:00,
2013-04-03 23:38:00,54.8,51.3,30.01,SSE,167,2.3,2.3,88,0.00,CLR,,0.00,WeatherDisplay:10.37,2013-04-04 06:38:00,
2013-04-03 23:43:00,54.7,51.5,30.01,SSE,167,3.5,3.5,89,0.00,CLR,,0.00,WeatherDisplay:10.37,2013-04-04 06:43:00,
2013-04-03 23:49:00,54.7,51.5,30.01,SSW,210,2.3,2.3,89,0.00,CLR,,0.00,WeatherDisplay:10.37,2013-04-04 06:49:00,
2013-04-03 23:54:00,54.6,51.4,30.02,South,176,2.3,2.3,89,0.00,CLR,,0.00,WeatherDisplay:10.37,2013-04-04 06:54:00,
2013-04-03 23:59:00,54.4,50.9,30.01,South,170,3.5,3.5,88,0.00,CLR,,0.00,WeatherDisplay:10.37,2013-04-04 06:59:00,